Time;durP1;ratioP1;P1;durP2;ratioP2;P2;SDS_P1;SDS_P2;PMS_P1;PMS_P2;Temp;Humidity;BMP_temperature;BMP_pressure;BME280_temperature;BME280_humidity;BME280_pressure;Samples;Min_cycle;Max_cycle;Signal;HPM_P1;HPM_P2
2023/05/17 00:01:29;;;;;;;0.60;0.60;;;18.70;80.10;;;;;;4940543;28;20207;-76
2023/05/17 00:03:57;;;;;;;1.30;1.17;;;18.70;80.30;;;;;;4945163;28;20205;-77
2023/05/17 00:06:26;;;;;;;3.03;1.47;;;18.60;80.00;;;;;;4941666;28;20203;-77
2023/05/17 00:08:54;;;;;;;0.90;0.80;;;18.70;79.80;;;;;;4948232;28;20678;-77
2023/05/17 00:11:22;;;;;;;6.67;0.90;;;18.70;80.20;;;;;;4944967;28;20836;-76
2023/05/17 00:13:51;;;;;;;3.97;1.47;;;18.70;80.00;;;;;;4942618;28;20226;-75
2023/05/17 00:16:20;;;;;;;8.90;2.03;;;18.60;80.40;;;;;;4944225;28;20206;-75
2023/05/17 00:18:49;;;;;;;1.17;0.70;;;18.60;81.10;;;;;;4944147;28;20262;-77
2023/05/17 00:21:17;;;;;;;2.63;0.63;;;18.60;80.80;;;;;;4945271;28;20199;-76
2023/05/17 00:23:46;;;;;;;1.27;1.17;;;18.60;80.50;;;;;;4950667;28;20202;-77
2023/05/17 00:26:14;;;;;;;1.50;1.23;;;18.60;81.20;;;;;;4954205;28;20233;-77
2023/05/17 00:28:42;;;;;;;1.70;1.53;;;18.60;81.60;;;;;;4949441;28;20902;-76
2023/05/17 00:31:11;;;;;;;1.17;1.07;;;18.60;81.20;;;;;;4945253;28;20575;-76
2023/05/17 00:33:40;;;;;;;1.03;0.77;;;18.50;81.20;;;;;;4949373;28;20209;-75
2023/05/17 00:36:09;;;;;;;0.77;0.70;;;18.60;80.90;;;;;;4953860;28;20666;-76
2023/05/17 00:38:37;;;;;;;2.20;1.50;;;18.60;80.90;;;;;;4947071;28;20230;-75
2023/05/17 00:41:06;;;;;;;3.43;1.73;;;18.50;81.30;;;;;;4944239;28;20199;-76
2023/05/17 00:43:34;;;;;;;1.23;1.13;;;18.50;81.60;;;;;;4955716;28;20265;-77
2023/05/17 00:46:02;;;;;;;2.00;1.23;;;18.50;81.90;;;;;;4953411;28;20213;-77
2023/05/17 00:48:30;;;;;;;1.23;0.83;;;18.50;81.60;;;;;;4949993;28;20706;-77
2023/05/17 00:51:00;;;;;;;1.03;0.90;;;18.50;82.30;;;;;;4954204;29;20262;-76
2023/05/17 00:53:30;;;;;;;1.53;1.23;;;18.40;82.10;;;;;;4954009;28;20247;-76
2023/05/17 00:55:58;;;;;;;0.70;0.70;;;18.40;82.30;;;;;;4956100;29;20209;-75
2023/05/17 00:58:26;;;;;;;0.57;0.43;;;18.40;82.50;;;;;;4949268;28;20203;-74
2023/05/17 01:00:55;;;;;;;0.90;0.80;;;18.40;82.60;;;;;;4948036;29;20555;-76
2023/05/17 01:03:23;;;;;;;2.50;0.93;;;18.40;82.50;;;;;;4953332;28;20198;-75
2023/05/17 01:05:52;;;;;;;2.97;1.63;;;18.40;82.40;;;;;;4949501;28;20206;-74
2023/05/17 01:08:22;;;;;;;16.13;1.03;;;18.40;82.40;;;;;;4950007;28;20199;-75
2023/05/17 01:10:58;;;;;;;0.77;0.77;;;18.40;82.50;;;;;;4952458;28;20297;-80
2023/05/17 01:13:33;;;;;;;0.60;0.60;;;18.40;82.50;;;;;;4947799;28;20233;-77
2023/05/17 01:16:09;;;;;;;1.80;1.20;;;18.40;82.50;;;;;;4953504;28;20198;-75
2023/05/17 01:18:41;;;;;;;0.60;0.60;;;18.30;82.50;;;;;;4951944;28;20198;-76
2023/05/17 01:21:33;;;;;;;3.40;1.17;;;18.30;82.90;;;;;;4951395;28;20213;-76
2023/05/17 01:24:17;;;;;;;0.60;0.60;;;18.40;82.70;;;;;;4949634;28;20203;-75
2023/05/17 01:26:49;;;;;;;1.07;0.97;;;18.30;82.20;;;;;;4950720;28;20208;-75
2023/05/17 01:29:20;;;;;;;2.27;1.13;;;18.30;82.30;;;;;;4950570;28;20536;-75
2023/05/17 01:31:49;;;;;;;0.30;0.30;;;18.40;82.30;;;;;;4944982;28;20696;-76
2023/05/17 01:34:25;;;;;;;1.53;1.17;;;18.40;82.50;;;;;;4947031;28;20565;-77
2023/05/17 01:36:54;;;;;;;1.60;1.30;;;18.40;82.60;;;;;;4949330;28;20194;-76
2023/05/17 01:39:22;;;;;;;0.63;0.63;;;18.30;82.60;;;;;;4946126;28;20241;-75
2023/05/17 01:41:59;;;;;;;0.50;0.50;;;18.30;82.70;;;;;;4952242;28;20191;-75
2023/05/17 01:44:33;;;;;;;7.17;2.17;;;18.30;82.80;;;;;;4951709;28;20226;-76
2023/05/17 01:47:09;;;;;;;5.10;1.90;;;18.30;82.80;;;;;;4950597;28;20199;-76
2023/05/17 01:49:41;;;;;;;0.87;0.67;;;18.30;82.50;;;;;;4949124;28;20199;-76
2023/05/17 01:52:16;;;;;;;2.13;0.70;;;18.30;82.40;;;;;;4950608;28;20210;-75
2023/05/17 01:54:50;;;;;;;0.40;0.40;;;18.30;82.20;;;;;;4948985;28;20202;-76
2023/05/17 01:57:24;;;;;;;1.77;1.30;;;18.30;82.70;;;;;;4948986;28;20206;-77
2023/05/17 01:59:54;;;;;;;0.90;0.90;;;18.40;82.50;;;;;;4950165;28;20209;-76
2023/05/17 02:02:23;;;;;;;2.00;1.07;;;18.30;82.80;;;;;;4946942;28;20205;-75
2023/05/17 02:04:51;;;;;;;0.80;0.73;;;18.30;82.60;;;;;;4954058;28;20203;-77
2023/05/17 02:07:20;;;;;;;0.60;0.60;;;18.30;82.70;;;;;;4949475;28;20194;-76
2023/05/17 02:09:48;;;;;;;0.50;0.50;;;18.30;83.00;;;;;;4948721;28;20213;-76
2023/05/17 02:12:16;;;;;;;0.57;0.57;;;18.30;82.50;;;;;;4944836;28;20226;-77
2023/05/17 02:14:46;;;;;;;3.13;0.77;;;18.30;82.70;;;;;;4946062;28;20206;-76
2023/05/17 02:17:14;;;;;;;0.97;0.73;;;18.30;82.50;;;;;;4944384;28;20225;-76
2023/05/17 02:19:43;;;;;;;0.40;0.40;;;18.30;82.60;;;;;;4948956;28;20237;-76
2023/05/17 02:22:11;;;;;;;1.20;0.63;;;18.30;82.70;;;;;;4945549;28;20207;-77
2023/05/17 02:24:39;;;;;;;0.63;0.63;;;18.30;82.40;;;;;;4950501;28;20297;-76
2023/05/17 02:27:08;;;;;;;0.67;0.63;;;18.30;83.10;;;;;;4950719;28;20203;-76
2023/05/17 02:29:54;;;;;;;1.27;1.17;;;18.20;83.20;;;;;;4950475;28;20206;-75
2023/05/17 02:32:25;;;;;;;5.73;0.80;;;18.30;83.10;;;;;;4944968;28;20615;-77
2023/05/17 02:34:54;;;;;;;0.50;0.50;;;18.30;82.80;;;;;;4946037;28;20942;-76
2023/05/17 02:37:22;;;;;;;1.87;0.80;;;18.30;82.60;;;;;;4949108;28;20714;-76
2023/05/17 02:39:50;;;;;;;1.97;1.27;;;18.20;82.80;;;;;;4947755;28;20202;-76
2023/05/17 02:42:19;;;;;;;0.87;0.70;;;18.20;83.00;;;;;;4951337;28;20195;-77
2023/05/17 02:44:51;;;;;;;0.73;0.40;;;18.30;82.80;;;;;;4947034;28;20541;-76
2023/05/17 02:47:20;;;;;;;0.20;0.20;;;18.30;82.70;;;;;;4945177;28;20203;-76
2023/05/17 02:49:49;;;;;;;1.50;0.60;;;18.30;83.00;;;;;;4946579;28;20202;-77
2023/05/17 02:52:17;;;;;;;0.77;0.40;;;18.30;83.00;;;;;;4948602;28;20575;-76
2023/05/17 02:54:46;;;;;;;0.50;0.50;;;18.30;82.70;;;;;;4948307;28;20616;-76
2023/05/17 02:57:14;;;;;;;0.77;0.77;;;18.30;83.10;;;;;;4950816;28;20202;-76
2023/05/17 02:59:43;;;;;;;1.17;0.83;;;18.20;83.40;;;;;;4947759;28;20269;-77
2023/05/17 03:02:13;;;;;;;3.43;1.50;;;18.20;83.80;;;;;;4950999;28;20225;-76
2023/05/17 03:04:41;;;;;;;1.23;0.90;;;18.20;83.40;;;;;;4945596;28;20261;-76
2023/05/17 03:07:10;;;;;;;0.27;0.27;;;18.20;83.70;;;;;;4951009;28;20206;-76
2023/05/17 03:09:38;;;;;;;0.60;0.60;;;18.30;83.40;;;;;;4948821;28;20229;-75
2023/05/17 03:12:08;;;;;;;0.60;0.60;;;18.30;83.50;;;;;;4951732;28;20209;-76
2023/05/17 03:14:36;;;;;;;0.80;0.80;;;18.30;83.40;;;;;;4950958;28;20273;-76
2023/05/17 03:17:05;;;;;;;1.50;1.00;;;18.30;83.80;;;;;;4948944;28;20572;-74
2023/05/17 03:19:38;;;;;;;0.63;0.50;;;18.30;83.60;;;;;;4951309;28;20207;-76
2023/05/17 03:22:06;;;;;;;0.70;0.67;;;18.30;84.20;;;;;;4896990;29;20773;-76
2023/05/17 03:24:34;;;;;;;8.87;1.37;;;18.30;83.70;;;;;;4946962;28;20202;-75
2023/05/17 03:27:03;;;;;;;1.67;0.93;;;18.30;84.30;;;;;;4953779;28;20207;-76
2023/05/17 03:29:32;;;;;;;0.57;0.57;;;18.30;84.10;;;;;;4943761;28;20667;-76
2023/05/17 03:32:00;;;;;;;0.83;0.63;;;18.30;83.80;;;;;;4944406;28;20222;-77
2023/05/17 03:34:29;;;;;;;1.03;0.93;;;18.30;83.80;;;;;;4946535;28;20691;-76
2023/05/17 03:36:59;;;;;;;1.00;1.00;;;18.30;83.80;;;;;;4949674;28;20199;-77
2023/05/17 03:39:27;;;;;;;1.50;0.83;;;18.40;83.70;;;;;;4949991;28;20206;-78
2023/05/17 03:41:56;;;;;;;1.23;1.13;;;18.40;83.50;;;;;;4950502;28;20207;-76
2023/05/17 03:44:24;;;;;;;1.53;1.43;;;18.40;83.80;;;;;;4947563;28;20624;-81
2023/05/17 03:46:52;;;;;;;1.73;1.10;;;18.40;84.10;;;;;;4947629;28;20217;-76
2023/05/17 03:49:21;;;;;;;0.97;0.93;;;18.30;84.10;;;;;;4949036;28;20293;-77
2023/05/17 03:51:49;;;;;;;0.97;0.50;;;18.30;84.20;;;;;;4950965;28;20217;-77
2023/05/17 03:54:19;;;;;;;0.40;0.40;;;18.30;84.10;;;;;;4947937;28;20229;-76
2023/05/17 03:56:48;;;;;;;0.63;0.63;;;18.30;84.10;;;;;;4950485;28;20863;-75
2023/05/17 03:59:17;;;;;;;5.20;0.80;;;18.40;83.80;;;;;;4951888;28;20202;-76
2023/05/17 04:01:45;;;;;;;3.13;1.70;;;18.40;83.70;;;;;;4952450;28;20210;-75
2023/05/17 04:04:13;;;;;;;7.90;1.70;;;18.40;83.80;;;;;;4947200;28;20198;-76
2023/05/17 04:06:42;;;;;;;0.87;0.87;;;18.40;83.60;;;;;;4953135;28;20210;-77
2023/05/17 04:09:12;;;;;;;0.90;0.87;;;18.40;83.40;;;;;;4945594;28;20211;-76
2023/05/17 04:11:42;;;;;;;1.60;0.73;;;18.40;83.60;;;;;;4948535;28;20214;-76
2023/05/17 04:14:11;;;;;;;1.40;0.80;;;18.40;83.60;;;;;;4948270;28;20228;-77
2023/05/17 04:16:39;;;;;;;2.43;1.40;;;18.40;83.40;;;;;;4949722;28;20226;-76
2023/05/17 04:19:07;;;;;;;1.50;1.10;;;18.40;83.70;;;;;;4949194;28;20445;-77
2023/05/17 04:21:35;;;;;;;2.17;1.33;;;18.40;83.60;;;;;;4948540;28;20293;-77
2023/05/17 04:24:04;;;;;;;0.60;0.60;;;18.40;83.50;;;;;;4947867;28;20249;-76
2023/05/17 04:26:33;;;;;;;1.20;0.83;;;18.40;83.80;;;;;;4951584;28;20198;-76
2023/05/17 04:29:03;;;;;;;1.40;1.30;;;18.40;83.50;;;;;;4952273;28;20202;-76
2023/05/17 04:31:32;;;;;;;1.17;1.07;;;18.40;83.80;;;;;;4950511;29;20222;-77
2023/05/17 04:34:00;;;;;;;0.63;0.63;;;18.40;83.70;;;;;;4951752;29;20699;-75
2023/05/17 04:36:28;;;;;;;9.63;1.40;;;18.40;83.40;;;;;;4950299;28;20205;-77
2023/05/17 04:38:57;;;;;;;1.03;0.70;;;18.50;83.40;;;;;;4947194;28;20234;-74
2023/05/17 04:41:26;;;;;;;0.73;0.70;;;18.50;83.50;;;;;;4948659;28;20206;-76
2023/05/17 04:43:54;;;;;;;0.70;0.70;;;18.50;83.40;;;;;;4949245;28;20194;-75
2023/05/17 04:46:24;;;;;;;2.00;1.50;;;18.50;83.40;;;;;;4949018;28;20213;-76
2023/05/17 04:48:54;;;;;;;3.03;0.90;;;18.60;83.30;;;;;;4949877;28;20441;-75
2023/05/17 04:51:41;;;;;;;0.70;0.50;;;18.60;83.30;;;;;;4949426;28;20329;-76
2023/05/17 04:54:09;;;;;;;10.00;1.50;;;18.60;83.60;;;;;;4941341;29;20258;-74
2023/05/17 04:56:38;;;;;;;1.63;0.70;;;18.60;83.40;;;;;;4945885;28;20470;-75
2023/05/17 04:59:06;;;;;;;2.60;0.67;;;18.60;83.60;;;;;;4951092;29;20573;-77
2023/05/17 05:01:36;;;;;;;1.30;0.70;;;18.60;83.20;;;;;;4950363;28;20230;-76
2023/05/17 05:04:05;;;;;;;0.83;0.60;;;18.70;83.10;;;;;;4952683;29;20538;-75
2023/05/17 05:06:37;;;;;;;0.73;0.73;;;18.70;83.10;;;;;;4951215;28;20254;-75
2023/05/17 05:09:06;;;;;;;0.40;0.40;;;18.70;82.90;;;;;;4953336;28;20211;-76
2023/05/17 05:11:34;;;;;;;0.60;0.60;;;18.70;83.30;;;;;;4952167;28;20565;-75
2023/05/17 05:14:02;;;;;;;1.00;0.90;;;18.70;83.30;;;;;;4954684;28;20265;-75
2023/05/17 05:16:30;;;;;;;1.40;1.03;;;18.70;83.10;;;;;;4952743;28;20618;-73
2023/05/17 05:19:00;;;;;;;0.60;0.60;;;18.70;83.80;;;;;;4953805;28;20207;-74
2023/05/17 05:21:29;;;;;;;1.43;0.70;;;18.70;85.10;;;;;;4951713;28;20213;-75
2023/05/17 05:23:58;;;;;;;1.77;0.80;;;18.60;86.50;;;;;;4951154;28;20211;-75
2023/05/17 05:26:26;;;;;;;0.67;0.50;;;18.60;85.70;;;;;;4952722;29;20285;-75
2023/05/17 05:28:54;;;;;;;0.70;0.70;;;18.60;85.70;;;;;;4953156;28;20654;-75
2023/05/17 05:31:22;;;;;;;0.30;0.30;;;18.60;86.20;;;;;;4952283;28;20230;-75
2023/05/17 05:33:51;;;;;;;0.60;0.60;;;18.60;85.90;;;;;;4953293;28;20230;-75
2023/05/17 05:36:20;;;;;;;1.87;1.40;;;18.60;87.40;;;;;;4952865;28;20199;-75
2023/05/17 05:38:51;;;;;;;2.30;1.23;;;18.60;86.60;;;;;;4951461;28;20674;-75
2023/05/17 05:41:19;;;;;;;0.67;0.67;;;18.60;87.40;;;;;;4949793;28;20206;-75
2023/05/17 05:43:48;;;;;;;1.47;0.90;;;18.60;87.80;;;;;;4951981;28;20208;-75
2023/05/17 05:46:16;;;;;;;0.97;0.90;;;18.60;88.10;;;;;;4955396;28;20202;-75
2023/05/17 05:48:44;;;;;;;2.20;0.90;;;18.60;87.80;;;;;;4946490;28;20219;-75
2023/05/17 05:51:13;;;;;;;0.40;0.40;;;18.60;88.30;;;;;;4949794;28;20202;-76
2023/05/17 05:53:42;;;;;;;0.63;0.63;;;18.60;87.90;;;;;;4953768;28;20225;-75
2023/05/17 05:56:11;;;;;;;5.17;1.37;;;18.60;89.00;;;;;;4951645;28;20877;-75
2023/05/17 05:58:39;;;;;;;3.23;1.23;;;18.60;89.60;;;;;;4953900;28;20203;-76
2023/05/17 06:01:08;;;;;;;10.43;1.27;;;18.60;90.00;;;;;;4952804;28;20210;-76
2023/05/17 06:03:37;;;;;;;0.73;0.70;;;18.60;90.40;;;;;;4947334;28;20202;-75
2023/05/17 06:06:06;;;;;;;0.47;0.43;;;18.60;90.20;;;;;;4953156;28;20198;-75
2023/05/17 06:08:34;;;;;;;1.60;0.93;;;18.60;90.30;;;;;;4952979;28;20210;-75
2023/05/17 06:11:04;;;;;;;1.07;0.73;;;18.70;90.30;;;;;;4954212;28;20287;-75
2023/05/17 06:13:33;;;;;;;0.50;0.50;;;18.70;90.30;;;;;;4949684;28;20839;-76
2023/05/17 06:16:02;;;;;;;1.47;1.03;;;18.80;90.20;;;;;;4954075;28;20233;-77
2023/05/17 06:18:30;;;;;;;3.33;0.73;;;18.90;90.20;;;;;;4953165;28;20211;-75
2023/05/17 06:20:59;;;;;;;0.40;0.40;;;18.90;90.20;;;;;;4953878;28;20573;-76
2023/05/17 06:23:27;;;;;;;0.70;0.70;;;18.90;90.10;;;;;;4950976;28;20229;-78
2023/05/17 06:25:55;;;;;;;0.70;0.70;;;19.00;90.10;;;;;;4953302;28;20675;-75
2023/05/17 06:28:25;;;;;;;10.30;1.40;;;19.00;90.00;;;;;;4953596;28;20209;-77
2023/05/17 06:30:53;;;;;;;0.90;0.83;;;19.10;90.10;;;;;;4953377;28;20234;-75
2023/05/17 06:33:22;;;;;;;1.00;0.70;;;19.10;90.00;;;;;;4948916;28;20297;-75
2023/05/17 06:35:50;;;;;;;2.10;1.17;;;19.20;90.40;;;;;;4953334;28;20289;-75
2023/05/17 06:38:25;;;;;;;1.63;0.83;;;19.20;90.00;;;;;;4953905;28;20198;-76
2023/05/17 06:40:54;;;;;;;1.10;1.00;;;19.20;90.00;;;;;;4951787;28;20206;-74
2023/05/17 06:43:22;;;;;;;1.70;1.03;;;19.20;90.00;;;;;;4952247;28;20289;-76
2023/05/17 06:45:52;;;;;;;1.03;0.90;;;19.30;90.10;;;;;;4950726;28;20651;-76
2023/05/17 06:48:20;;;;;;;1.00;0.90;;;19.30;90.00;;;;;;4941325;28;20206;-75
2023/05/17 06:50:49;;;;;;;0.60;0.60;;;19.30;89.90;;;;;;4948021;28;20655;-76
2023/05/17 06:53:17;;;;;;;3.57;1.50;;;19.40;89.90;;;;;;4949272;29;20230;-76
2023/05/17 06:55:48;;;;;;;1.50;0.83;;;19.40;90.00;;;;;;4943288;28;20244;-75
2023/05/17 06:58:16;;;;;;;0.80;0.80;;;19.50;89.80;;;;;;4948416;28;21145;-74
2023/05/17 07:00:45;;;;;;;1.20;0.90;;;19.50;89.70;;;;;;4942116;28;20217;-74
2023/05/17 07:03:14;;;;;;;0.53;0.53;;;19.60;89.60;;;;;;4946625;28;20206;-76
2023/05/17 07:05:43;;;;;;;2.90;1.07;;;19.60;89.40;;;;;;4950104;28;20202;-74
2023/05/17 07:08:11;;;;;;;1.07;0.70;;;19.60;89.70;;;;;;4949443;28;20643;-75
2023/05/17 07:10:39;;;;;;;2.77;0.70;;;19.60;89.40;;;;;;4948663;28;20278;-74
2023/05/17 07:13:08;;;;;;;0.70;0.70;;;19.60;89.60;;;;;;4949983;28;20666;-76
2023/05/17 07:15:36;;;;;;;4.20;1.00;;;19.60;89.70;;;;;;4947267;28;20226;-73
2023/05/17 07:18:05;;;;;;;1.77;0.80;;;19.60;89.60;;;;;;4946035;28;20217;-74
2023/05/17 07:20:34;;;;;;;0.63;0.47;;;19.60;89.20;;;;;;4947936;28;20210;-74
2023/05/17 07:23:03;;;;;;;2.07;1.20;;;19.60;89.70;;;;;;4945111;28;20206;-74
2023/05/17 07:25:31;;;;;;;0.70;0.70;;;19.60;89.50;;;;;;4944882;28;20203;-75
2023/05/17 07:28:00;;;;;;;1.50;1.37;;;19.60;89.40;;;;;;4951530;28;20191;-73
2023/05/17 07:30:28;;;;;;;1.97;1.30;;;19.60;89.30;;;;;;4949178;28;20213;-73
2023/05/17 07:32:56;;;;;;;4.77;1.60;;;19.50;89.80;;;;;;4946845;28;20424;-73
2023/05/17 07:35:25;;;;;;;1.50;1.03;;;19.60;89.70;;;;;;4945047;28;20221;-74
2023/05/17 07:37:55;;;;;;;0.37;0.33;;;19.50;89.60;;;;;;4951338;28;20218;-74
2023/05/17 07:40:23;;;;;;;1.70;1.23;;;19.50;89.60;;;;;;4945385;28;20575;-75
2023/05/17 07:42:51;;;;;;;2.23;1.27;;;19.50;89.50;;;;;;4947967;28;20206;-75
2023/05/17 07:45:20;;;;;;;1.53;0.60;;;19.50;90.10;;;;;;4941691;28;20459;-75
2023/05/17 07:47:51;;;;;;;0.67;0.63;;;19.50;90.40;;;;;;4942328;28;20209;-76
2023/05/17 07:50:23;;;;;;;0.90;0.70;;;19.50;90.40;;;;;;4950365;28;20232;-75
2023/05/17 07:52:52;;;;;;;0.80;0.73;;;19.50;90.20;;;;;;4945788;28;20195;-76
2023/05/17 07:55:21;;;;;;;0.63;0.63;;;19.50;90.10;;;;;;4951394;28;20215;-75
2023/05/17 07:57:51;;;;;;;0.93;0.73;;;19.60;90.20;;;;;;4945315;28;20194;-74
2023/05/17 08:00:21;;;;;;;0.60;0.60;;;19.60;90.40;;;;;;4946570;28;20199;-76
2023/05/17 08:02:49;;;;;;;0.40;0.40;;;19.60;90.30;;;;;;4948424;28;20659;-74
2023/05/17 08:05:18;;;;;;;0.60;0.40;;;19.60;90.90;;;;;;4949606;28;20722;-76
2023/05/17 08:07:46;;;;;;;7.73;1.27;;;19.70;90.70;;;;;;4945995;28;20576;-76
2023/05/17 08:10:14;;;;;;;1.17;0.77;;;19.70;90.60;;;;;;4940849;28;20217;-76
2023/05/17 08:12:45;;;;;;;3.33;0.93;;;19.70;90.40;;;;;;4944466;28;20215;-75
2023/05/17 08:15:13;;;;;;;3.20;1.60;;;19.80;90.40;;;;;;4946056;28;20214;-75
2023/05/17 08:17:41;;;;;;;1.58;1.23;;;19.80;90.80;;;;;;4945512;28;20647;-76
2023/05/17 08:20:10;;;;;;;0.73;0.60;;;19.80;90.70;;;;;;4947740;28;20199;-76
2023/05/17 08:22:39;;;;;;;0.70;0.70;;;19.80;90.70;;;;;;4947043;28;20633;-74
2023/05/17 08:25:10;;;;;;;0.77;0.73;;;19.80;90.60;;;;;;4945133;28;20195;-75
2023/05/17 08:27:39;;;;;;;1.33;1.23;;;19.80;90.70;;;;;;4947178;28;20301;-75
2023/05/17 08:30:10;;;;;;;1.27;0.60;;;19.80;90.80;;;;;;4947220;28;20198;-75
2023/05/17 08:32:45;;;;;;;0.43;0.43;;;19.80;90.60;;;;;;4946562;28;20202;-75
2023/05/17 08:35:13;;;;;;;1.17;0.85;;;19.80;90.30;;;;;;4944297;28;20217;-76
2023/05/17 08:37:42;;;;;;;4.33;2.33;;;19.90;90.10;;;;;;4942395;28;20208;-75
2023/05/17 08:40:10;;;;;;;0.80;0.40;;;19.80;90.30;;;;;;4940979;28;20286;-76
2023/05/17 08:42:39;;;;;;;1.37;1.03;;;19.80;90.00;;;;;;4947058;28;20206;-76
2023/05/17 08:45:10;;;;;;;2.97;1.20;;;19.80;90.00;;;;;;4949426;28;20198;-76
2023/05/17 08:47:40;;;;;;;0.52;0.52;;;19.80;90.10;;;;;;4949858;28;20257;-77
2023/05/17 08:50:09;;;;;;;1.23;0.95;;;19.80;90.00;;;;;;4952826;28;20198;-75
2023/05/17 08:52:39;;;;;;;3.92;1.35;;;19.70;90.10;;;;;;4951210;28;20606;-76
2023/05/17 08:55:08;;;;;;;0.50;0.50;;;19.80;90.00;;;;;;4950742;28;20202;-75
2023/05/17 08:57:39;;;;;;;0.88;0.85;;;19.80;89.90;;;;;;4948441;28;20724;-74
2023/05/17 09:00:18;;;;;;;0.97;0.83;;;19.70;90.30;;;;;;4950334;28;20202;-75
2023/05/17 09:02:47;;;;;;;3.03;0.73;;;19.70;90.00;;;;;;4948885;28;20829;-75
2023/05/17 09:05:16;;;;;;;0.35;0.35;;;19.70;90.20;;;;;;4950270;28;20205;-76
2023/05/17 09:07:45;;;;;;;0.70;0.60;;;19.70;90.30;;;;;;4953418;28;20202;-75
2023/05/17 09:10:16;;;;;;;0.50;0.50;;;19.70;90.50;;;;;;4949781;28;20643;-75
2023/05/17 09:12:51;;;;;;;1.20;0.87;;;19.70;90.30;;;;;;4948216;28;20210;-77
2023/05/17 09:15:25;;;;;;;0.80;0.65;;;19.70;90.70;;;;;;4945621;28;20202;-75
2023/05/17 09:17:54;;;;;;;1.13;0.50;;;19.70;90.50;;;;;;4952388;28;20237;-76
2023/05/17 09:20:24;;;;;;;0.77;0.73;;;19.70;90.50;;;;;;4948582;28;20206;-75
2023/05/17 09:22:52;;;;;;;2.35;0.90;;;19.70;90.70;;;;;;4948944;28;20269;-76
2023/05/17 09:25:23;;;;;;;5.60;0.73;;;19.70;90.60;;;;;;4951279;28;20202;-74
2023/05/17 09:27:53;;;;;;;0.90;0.70;;;19.70;90.60;;;;;;4946709;28;20249;-75
2023/05/17 09:30:27;;;;;;;2.93;1.50;;;19.70;90.60;;;;;;4949682;28;20195;-75
2023/05/17 09:32:57;;;;;;;1.48;0.90;;;19.80;90.70;;;;;;4948820;28;20299;-76
2023/05/17 09:35:30;;;;;;;0.40;0.40;;;19.80;90.60;;;;;;4952662;28;20198;-77
2023/05/17 09:38:06;;;;;;;0.80;0.80;;;19.80;90.70;;;;;;4948685;28;20249;-75
2023/05/17 09:40:38;;;;;;;0.98;0.82;;;19.80;90.70;;;;;;4952489;28;20194;-75
2023/05/17 09:43:07;;;;;;;0.60;0.60;;;19.80;90.90;;;;;;4943563;28;20608;-76
2023/05/17 09:45:38;;;;;;;3.90;1.08;;;19.80;90.80;;;;;;4948245;28;20202;-76
2023/05/17 09:48:13;;;;;;;1.47;1.00;;;19.80;90.70;;;;;;4950066;28;20195;-77
2023/05/17 09:50:46;;;;;;;1.02;0.82;;;19.80;91.10;;;;;;4950365;28;20659;-75
2023/05/17 09:53:24;;;;;;;1.67;1.00;;;19.90;91.00;;;;;;4948523;28;20210;-75
2023/05/17 09:55:53;;;;;;;1.38;0.70;;;19.90;91.00;;;;;;4946316;28;20202;-75
2023/05/17 09:58:22;;;;;;;1.90;0.98;;;19.90;91.20;;;;;;4945709;28;20202;-76
2023/05/17 10:01:01;;;;;;;0.40;0.40;;;19.90;91.30;;;;;;4945630;28;20199;-77
2023/05/17 10:03:31;;;;;;;1.10;0.75;;;19.90;91.20;;;;;;4951452;28;20209;-75
2023/05/17 10:06:02;;;;;;;1.30;0.95;;;20.00;91.10;;;;;;4949636;28;20576;-75
2023/05/17 10:08:32;;;;;;;1.75;1.13;;;20.00;91.10;;;;;;4952189;28;20246;-75
2023/05/17 10:11:06;;;;;;;0.50;0.50;;;20.00;91.20;;;;;;4944649;28;20206;-76
2023/05/17 10:13:39;;;;;;;0.70;0.70;;;20.00;91.20;;;;;;4945971;28;20206;-76
2023/05/17 10:16:10;;;;;;;1.33;1.08;;;20.00;91.20;;;;;;4943623;28;20209;-76
2023/05/17 10:18:40;;;;;;;0.40;0.40;;;20.10;91.20;;;;;;4943303;28;20202;-77
2023/05/17 10:21:09;;;;;;;0.85;0.65;;;20.10;91.10;;;;;;4944372;28;20211;-75
2023/05/17 10:23:39;;;;;;;0.30;0.30;;;20.10;91.00;;;;;;4944958;28;20733;-75
2023/05/17 10:26:08;;;;;;;1.08;0.98;;;20.20;91.10;;;;;;4944289;28;20655;-75
2023/05/17 10:28:37;;;;;;;3.03;0.98;;;20.20;91.40;;;;;;4945594;28;20221;-76
2023/05/17 10:31:07;;;;;;;0.75;0.43;;;20.20;91.40;;;;;;4945351;28;20722;-75
2023/05/17 10:33:37;;;;;;;1.33;1.00;;;20.30;91.80;;;;;;4946205;28;20779;-75
2023/05/17 10:36:07;;;;;;;0.80;0.63;;;20.20;92.00;;;;;;4940804;28;20202;-75
2023/05/17 10:38:35;;;;;;;7.75;0.73;;;20.30;91.70;;;;;;4947318;28;20607;-74
2023/05/17 10:41:11;;;;;;;2.13;1.67;;;20.30;91.70;;;;;;4944083;28;20190;-75
2023/05/17 10:43:41;;;;;;;1.17;0.80;;;20.30;91.60;;;;;;4951014;28;20198;-74
2023/05/17 10:46:16;;;;;;;1.30;1.20;;;20.30;91.80;;;;;;4947101;28;20206;-74
2023/05/17 10:48:45;;;;;;;0.60;0.60;;;20.40;92.00;;;;;;4948483;28;20205;-74
2023/05/17 10:51:17;;;;;;;6.03;1.77;;;20.30;92.20;;;;;;4944251;28;20231;-74
2023/05/17 10:54:10;;;;;;;1.00;0.90;;;20.40;92.20;;;;;;4949907;28;20205;-74
2023/05/17 10:56:46;;;;;;;2.22;1.23;;;20.40;92.50;;;;;;4943387;28;20203;-75
2023/05/17 10:59:21;;;;;;;0.85;0.70;;;20.40;92.40;;;;;;4950371;28;20678;-74
2023/05/17 11:01:54;;;;;;;1.50;1.15;;;20.40;92.80;;;;;;4945944;28;20201;-74
2023/05/17 11:04:24;;;;;;;2.33;1.35;;;20.40;92.80;;;;;;4946097;28;20201;-74
2023/05/17 11:06:55;;;;;;;3.40;1.95;;;20.50;92.60;;;;;;4947685;28;20187;-76
2023/05/17 11:09:24;;;;;;;1.75;0.95;;;20.50;92.80;;;;;;4946840;28;20202;-74
2023/05/17 11:12:04;;;;;;;1.35;1.00;;;20.50;93.00;;;;;;4948184;28;20217;-75
2023/05/17 11:14:51;;;;;;;0.52;0.52;;;20.50;93.10;;;;;;4944110;28;20210;-75
2023/05/17 11:17:25;;;;;;;1.58;1.25;;;20.60;92.90;;;;;;4941849;28;20702;-74
2023/05/17 11:20:01;;;;;;;2.20;1.67;;;20.60;93.10;;;;;;4944841;28;20928;-74
2023/05/17 11:22:37;;;;;;;1.13;0.93;;;20.50;92.90;;;;;;4944932;28;20202;-73
2023/05/17 11:25:10;;;;;;;0.60;0.60;;;20.60;92.90;;;;;;4941112;28;20210;-74
2023/05/17 11:27:44;;;;;;;2.08;1.10;;;20.60;93.00;;;;;;4942528;28;20205;-74
2023/05/17 11:30:23;;;;;;;2.65;1.30;;;20.60;93.00;;;;;;4942074;28;20290;-77
2023/05/17 11:32:57;;;;;;;2.17;0.70;;;20.60;93.30;;;;;;4949462;28;20193;-74
2023/05/17 11:35:29;;;;;;;0.60;0.60;;;20.70;93.10;;;;;;4946169;28;20248;-75
2023/05/17 11:38:15;;;;;;;1.42;1.33;;;20.70;93.00;;;;;;4948589;28;20211;-75
2023/05/17 11:40:45;;;;;;;0.95;0.88;;;20.80;93.10;;;;;;4941938;28;20210;-74
2023/05/17 11:43:15;;;;;;;0.88;0.80;;;20.90;93.10;;;;;;4944369;28;20209;-74
2023/05/17 11:45:44;;;;;;;1.05;0.63;;;20.90;93.00;;;;;;4951712;28;20206;-74
2023/05/17 11:48:15;;;;;;;0.75;0.75;;;21.00;93.00;;;;;;4947117;28;20315;-74
2023/05/17 11:50:46;;;;;;;0.77;0.77;;;21.10;92.90;;;;;;4946657;28;20260;-75
2023/05/17 11:53:15;;;;;;;1.50;0.98;;;21.10;92.70;;;;;;4948474;28;20225;-74
2023/05/17 11:55:46;;;;;;;0.55;0.50;;;21.20;93.00;;;;;;4945542;28;20297;-76
2023/05/17 11:58:15;;;;;;;0.88;0.75;;;21.30;92.50;;;;;;4944745;28;20827;-76
2023/05/17 12:00:44;;;;;;;0.50;0.50;;;21.40;92.40;;;;;;4947131;28;20199;-74
2023/05/17 12:03:21;;;;;;;8.93;1.08;;;21.40;92.10;;;;;;4947289;28;20202;-76
2023/05/17 12:05:51;;;;;;;6.22;1.42;;;21.50;91.90;;;;;;4948482;28;20190;-75
2023/05/17 12:08:21;;;;;;;9.25;2.80;;;21.50;91.90;;;;;;4948968;28;20195;-76
2023/05/17 12:10:51;;;;;;;1.52;1.27;;;21.50;91.70;;;;;;4945105;28;20257;-76
2023/05/17 12:13:21;;;;;;;1.00;0.90;;;21.50;92.00;;;;;;4949406;28;20702;-76
2023/05/17 12:15:55;;;;;;;0.98;0.98;;;21.50;91.50;;;;;;4950836;28;20616;-74
2023/05/17 12:18:34;;;;;;;0.98;0.75;;;21.50;91.50;;;;;;4949440;28;20218;-75
2023/05/17 12:21:03;;;;;;;3.47;1.92;;;21.60;91.40;;;;;;4945684;28;22005;-75
2023/05/17 12:23:32;;;;;;;0.57;0.57;;;21.50;91.30;;;;;;4949953;28;20311;-76
2023/05/17 12:26:08;;;;;;;0.85;0.70;;;21.50;91.30;;;;;;4953176;28;20210;-75
2023/05/17 12:28:38;;;;;;;0.82;0.60;;;21.50;91.30;;;;;;4951391;28;20647;-75
2023/05/17 12:31:09;;;;;;;0.80;0.70;;;21.50;91.30;;;;;;4953686;28;20241;-75
2023/05/17 12:33:41;;;;;;;1.10;0.60;;;21.50;91.20;;;;;;4953071;28;20194;-74
2023/05/17 12:36:12;;;;;;;1.75;1.23;;;21.50;91.30;;;;;;4954016;28;20205;-75
2023/05/17 12:38:41;;;;;;;0.63;0.60;;;21.50;91.30;;;;;;4955246;28;20214;-76
2023/05/17 12:41:11;;;;;;;0.40;0.40;;;21.50;91.30;;;;;;4953745;28;20199;-75
2023/05/17 12:43:40;;;;;;;0.60;0.60;;;21.60;91.30;;;;;;4954765;28;20211;-75
2023/05/17 12:46:10;;;;;;;0.43;0.40;;;21.60;91.30;;;;;;4955021;28;20194;-75
2023/05/17 12:48:41;;;;;;;1.85;0.98;;;21.70;91.20;;;;;;4951369;28;20282;-75
2023/05/17 12:51:10;;;;;;;2.00;0.82;;;21.70;91.40;;;;;;4949180;28;20229;-77
2023/05/17 12:53:41;;;;;;;2.15;0.93;;;21.70;91.50;;;;;;4954633;28;20257;-75
2023/05/17 12:56:14;;;;;;;0.80;0.60;;;21.70;91.50;;;;;;4950824;28;20347;-75
2023/05/17 12:58:43;;;;;;;0.70;0.65;;;21.80;91.60;;;;;;4947605;28;20606;-75
2023/05/17 13:01:13;;;;;;;0.47;0.45;;;21.80;92.00;;;;;;4951489;28;20213;-76